sensor_id;sensor_type;location;lat;lon;timestamp;temperature;humidity
22666;DHT22;11499;49.486;11.104;2022-12-18T00:01:47;-10.10;94.70
22666;DHT22;11499;49.486;11.104;2022-12-18T00:04:24;-10.10;94.70
22666;DHT22;11499;49.486;11.104;2022-12-18T00:06:50;-10.10;94.60
22666;DHT22;11499;49.486;11.104;2022-12-18T00:09:16;-10.10;94.50
22666;DHT22;11499;49.486;11.104;2022-12-18T00:11:41;-10.10;94.60
22666;DHT22;11499;49.486;11.104;2022-12-18T00:14:09;-10.10;94.50
22666;DHT22;11499;49.486;11.104;2022-12-18T00:16:36;-10.10;93.20
22666;DHT22;11499;49.486;11.104;2022-12-18T00:19:02;-10.20;92.10
22666;DHT22;11499;49.486;11.104;2022-12-18T00:21:29;-9.80;92.60
22666;DHT22;11499;49.486;11.104;2022-12-18T00:25:04;-10.20;91.90
22666;DHT22;11499;49.486;11.104;2022-12-18T00:27:29;-10.40;91.40
22666;DHT22;11499;49.486;11.104;2022-12-18T00:29:55;-10.60;91.30
22666;DHT22;11499;49.486;11.104;2022-12-18T00:32:20;-10.70;91.80
22666;DHT22;11499;49.486;11.104;2022-12-18T00:34:46;-10.90;91.80
22666;DHT22;11499;49.486;11.104;2022-12-18T00:37:11;-11.00;92.20
22666;DHT22;11499;49.486;11.104;2022-12-18T00:39:37;-11.00;92.10
22666;DHT22;11499;49.486;11.104;2022-12-18T00:42:02;-11.10;91.80
22666;DHT22;11499;49.486;11.104;2022-12-18T00:44:46;-11.10;92.40
22666;DHT22;11499;49.486;11.104;2022-12-18T00:47:12;-11.10;92.30
22666;DHT22;11499;49.486;11.104;2022-12-18T00:52:20;-11.00;92.30
22666;DHT22;11499;49.486;11.104;2022-12-18T00:54:46;-11.00;92.40
22666;DHT22;11499;49.486;11.104;2022-12-18T00:57:11;-10.90;92.40
22666;DHT22;11499;49.486;11.104;2022-12-18T00:59:37;-10.90;92.40
22666;DHT22;11499;49.486;11.104;2022-12-18T01:02:02;-10.90;92.60
22666;DHT22;11499;49.486;11.104;2022-12-18T01:04:32;-11.00;92.70
22666;DHT22;11499;49.486;11.104;2022-12-18T01:06:58;-11.00;92.80
22666;DHT22;11499;49.486;11.104;2022-12-18T01:09:23;-10.90;93.10
22666;DHT22;11499;49.486;11.104;2022-12-18T01:11:49;-10.80;93.30
22666;DHT22;11499;49.486;11.104;2022-12-18T01:14:15;-10.80;94.00
22666;DHT22;11499;49.486;11.104;2022-12-18T01:19:39;-10.60;94.90
22666;DHT22;11499;49.486;11.104;2022-12-18T01:22:04;-10.50;95.00
22666;DHT22;11499;49.486;11.104;2022-12-18T01:24:30;-10.50;95.40
22666;DHT22;11499;49.486;11.104;2022-12-18T01:26:55;-10.20;96.70
22666;DHT22;11499;49.486;11.104;2022-12-18T01:29:22;-10.20;96.30
22666;DHT22;11499;49.486;11.104;2022-12-18T01:31:48;-10.20;95.90
22666;DHT22;11499;49.486;11.104;2022-12-18T01:34:13;-10.20;95.60
22666;DHT22;11499;49.486;11.104;2022-12-18T01:36:39;-10.10;95.60
22666;DHT22;11499;49.486;11.104;2022-12-18T01:39:09;-10.00;95.80
22666;DHT22;11499;49.486;11.104;2022-12-18T01:41:36;-10.00;95.30
22666;DHT22;11499;49.486;11.104;2022-12-18T01:47:01;-9.90;96.20
22666;DHT22;11499;49.486;11.104;2022-12-18T01:49:27;-9.90;96.60
22666;DHT22;11499;49.486;11.104;2022-12-18T01:51:52;-9.70;97.40
22666;DHT22;11499;49.486;11.104;2022-12-18T01:54:18;-9.80;96.60
22666;DHT22;11499;49.486;11.104;2022-12-18T01:56:43;-9.90;96.40
22666;DHT22;11499;49.486;11.104;2022-12-18T01:59:10;-9.90;96.40
22666;DHT22;11499;49.486;11.104;2022-12-18T02:01:37;-10.00;96.30
22666;DHT22;11499;49.486;11.104;2022-12-18T02:04:22;-10.00;96.40
22666;DHT22;11499;49.486;11.104;2022-12-18T02:06:52;-10.00;96.60
22666;DHT22;11499;49.486;11.104;2022-12-18T02:09:22;-10.00;96.60
22666;DHT22;11499;49.486;11.104;2022-12-18T02:15:23;-9.90;96.60
22666;DHT22;11499;49.486;11.104;2022-12-18T02:18:10;-9.90;96.80
22666;DHT22;11499;49.486;11.104;2022-12-18T02:23:12;-9.90;97.50
22666;DHT22;11499;49.486;11.104;2022-12-18T02:28:33;-10.00;97.20
22666;DHT22;11499;49.486;11.104;2022-12-18T02:31:02;-9.90;97.10
22666;DHT22;11499;49.486;11.104;2022-12-18T02:33:29;-9.90;97.20
22666;DHT22;11499;49.486;11.104;2022-12-18T02:35:57;-9.80;97.00
22666;DHT22;11499;49.486;11.104;2022-12-18T02:38:24;-9.70;96.90
22666;DHT22;11499;49.486;11.104;2022-12-18T02:43:31;-9.80;96.80
22666;DHT22;11499;49.486;11.104;2022-12-18T02:45:58;-9.60;97.10
22666;DHT22;11499;49.486;11.104;2022-12-18T02:48:42;-9.60;97.00
22666;DHT22;11499;49.486;11.104;2022-12-18T02:51:24;-9.70;96.80
22666;DHT22;11499;49.486;11.104;2022-12-18T02:54:02;-9.70;97.20
22666;DHT22;11499;49.486;11.104;2022-12-18T02:56:39;-9.80;97.20
22666;DHT22;11499;49.486;11.104;2022-12-18T02:59:58;-9.80;97.30
22666;DHT22;11499;49.486;11.104;2022-12-18T03:02:08;-9.80;97.40
22666;DHT22;11499;49.486;11.104;2022-12-18T03:04:42;-9.80;97.20
22666;DHT22;11499;49.486;11.104;2022-12-18T03:10:20;-9.90;94.10
22666;DHT22;11499;49.486;11.104;2022-12-18T03:12:53;-9.80;94.00
22666;DHT22;11499;49.486;11.104;2022-12-18T03:15:23;-9.80;94.90
22666;DHT22;11499;49.486;11.104;2022-12-18T03:18:01;-9.60;96.10
22666;DHT22;11499;49.486;11.104;2022-12-18T03:20:29;-9.50;96.30
22666;DHT22;11499;49.486;11.104;2022-12-18T03:23:00;-9.40;96.40
22666;DHT22;11499;49.486;11.104;2022-12-18T03:25:27;-9.30;96.10
22666;DHT22;11499;49.486;11.104;2022-12-18T03:27:56;-9.20;95.10
22666;DHT22;11499;49.486;11.104;2022-12-18T03:30:24;-9.00;96.00
22666;DHT22;11499;49.486;11.104;2022-12-18T03:35:59;-8.80;95.20
22666;DHT22;11499;49.486;11.104;2022-12-18T03:38:25;-8.60;95.90
22666;DHT22;11499;49.486;11.104;2022-12-18T03:43:49;-8.70;95.00
22666;DHT22;11499;49.486;11.104;2022-12-18T03:46:28;-8.70;95.00
22666;DHT22;11499;49.486;11.104;2022-12-18T03:54:39;-8.70;95.30
22666;DHT22;11499;49.486;11.104;2022-12-18T03:57:21;-8.50;96.30
22666;DHT22;11499;49.486;11.104;2022-12-18T03:59:50;-8.60;96.00
22666;DHT22;11499;49.486;11.104;2022-12-18T04:03:42;-8.50;96.10
22666;DHT22;11499;49.486;11.104;2022-12-18T04:06:10;-8.40;95.10
22666;DHT22;11499;49.486;11.104;2022-12-18T04:08:36;-8.50;95.30
22666;DHT22;11499;49.486;11.104;2022-12-18T04:11:02;-8.70;95.90
22666;DHT22;11499;49.486;11.104;2022-12-18T04:13:30;-8.90;96.40
22666;DHT22;11499;49.486;11.104;2022-12-18T04:15:57;-8.90;97.00
22666;DHT22;11499;49.486;11.104;2022-12-18T04:18:22;-8.70;97.80
22666;DHT22;11499;49.486;11.104;2022-12-18T04:20:48;-8.50;98.20
22666;DHT22;11499;49.486;11.104;2022-12-18T04:23:13;-8.40;98.10
22666;DHT22;11499;49.486;11.104;2022-12-18T04:25:39;-8.20;98.10
22666;DHT22;11499;49.486;11.104;2022-12-18T04:31:38;-8.00;98.10
22666;DHT22;11499;49.486;11.104;2022-12-18T04:34:04;-7.90;98.20
22666;DHT22;11499;49.486;11.104;2022-12-18T04:36:29;-7.70;98.10
22666;DHT22;11499;49.486;11.104;2022-12-18T04:38:55;-7.70;98.20
22666;DHT22;11499;49.486;11.104;2022-12-18T04:41:21;-7.60;98.30
22666;DHT22;11499;49.486;11.104;2022-12-18T04:43:47;-7.50;98.50
22666;DHT22;11499;49.486;11.104;2022-12-18T04:46:12;-7.20;98.70
22666;DHT22;11499;49.486;11.104;2022-12-18T04:48:38;-7.30;98.70
22666;DHT22;11499;49.486;11.104;2022-12-18T04:51:04;-7.20;98.70
22666;DHT22;11499;49.486;11.104;2022-12-18T04:53:30;-7.30;98.80
22666;DHT22;11499;49.486;11.104;2022-12-18T04:56:07;-7.30;99.10
22666;DHT22;11499;49.486;11.104;2022-12-18T04:58:35;-7.30;99.40
22666;DHT22;11499;49.486;11.104;2022-12-18T05:03:51;-7.10;99.80
22666;DHT22;11499;49.486;11.104;2022-12-18T05:06:16;-6.90;99.70
22666;DHT22;11499;49.486;11.104;2022-12-18T05:08:42;-6.70;99.50
22666;DHT22;11499;49.486;11.104;2022-12-18T05:11:10;-6.60;99.20
22666;DHT22;11499;49.486;11.104;2022-12-18T05:13:37;-6.70;98.90
22666;DHT22;11499;49.486;11.104;2022-12-18T05:16:03;-6.60;99.10
22666;DHT22;11499;49.486;11.104;2022-12-18T05:18:29;-6.60;99.10
22666;DHT22;11499;49.486;11.104;2022-12-18T05:20:55;-6.50;99.00
22666;DHT22;11499;49.486;11.104;2022-12-18T05:23:21;-6.50;99.00
22666;DHT22;11499;49.486;11.104;2022-12-18T05:25:58;-6.60;99.30
22666;DHT22;11499;49.486;11.104;2022-12-18T05:31:04;-6.50;99.70
22666;DHT22;11499;49.486;11.104;2022-12-18T05:33:32;-6.50;99.60
22666;DHT22;11499;49.486;11.104;2022-12-18T05:35:59;-6.50;99.80
22666;DHT22;11499;49.486;11.104;2022-12-18T05:38:26;-6.50;99.80
22666;DHT22;11499;49.486;11.104;2022-12-18T05:40:52;-6.40;99.90
22666;DHT22;11499;49.486;11.104;2022-12-18T05:43:22;-6.30;99.90
22666;DHT22;11499;49.486;11.104;2022-12-18T05:45:48;-6.40;99.90
22666;DHT22;11499;49.486;11.104;2022-12-18T05:48:15;-6.30;99.90
22666;DHT22;11499;49.486;11.104;2022-12-18T05:50:42;-6.20;99.90
22666;DHT22;11499;49.486;11.104;2022-12-18T05:53:09;-6.30;99.90
22666;DHT22;11499;49.486;11.104;2022-12-18T05:58:15;-6.30;99.90
22666;DHT22;11499;49.486;11.104;2022-12-18T06:00:43;-6.20;99.90
22666;DHT22;11499;49.486;11.104;2022-12-18T06:03:11;-6.10;99.90
22666;DHT22;11499;49.486;11.104;2022-12-18T06:05:42;-6.20;99.90
22666;DHT22;11499;49.486;11.104;2022-12-18T06:08:08;-6.20;99.90
22666;DHT22;11499;49.486;11.104;2022-12-18T06:10:34;-6.30;99.90
22666;DHT22;11499;49.486;11.104;2022-12-18T06:13:00;-6.30;99.90
22666;DHT22;11499;49.486;11.104;2022-12-18T06:15:26;-6.20;99.90
22666;DHT22;11499;49.486;11.104;2022-12-18T06:17:51;-6.20;99.90
22666;DHT22;11499;49.486;11.104;2022-12-18T06:20:17;-6.00;99.90
22666;DHT22;11499;49.486;11.104;2022-12-18T06:24:46;-6.10;99.90
22666;DHT22;11499;49.486;11.104;2022-12-18T06:27:11;-6.00;99.90
22666;DHT22;11499;49.486;11.104;2022-12-18T06:29:37;-6.00;99.90
22666;DHT22;11499;49.486;11.104;2022-12-18T06:32:03;-5.90;99.90
22666;DHT22;11499;49.486;11.104;2022-12-18T06:34:31;-5.90;99.90
22666;DHT22;11499;49.486;11.104;2022-12-18T06:36:57;-5.90;99.90
22666;DHT22;11499;49.486;11.104;2022-12-18T06:39:23;-5.50;99.90
22666;DHT22;11499;49.486;11.104;2022-12-18T06:41:48;-5.90;99.90
22666;DHT22;11499;49.486;11.104;2022-12-18T06:44:14;-5.80;99.90
22666;DHT22;11499;49.486;11.104;2022-12-18T06:46:39;-5.70;99.90
22666;DHT22;11499;49.486;11.104;2022-12-18T06:51:28;-5.60;99.90
22666;DHT22;11499;49.486;11.104;2022-12-18T06:53:54;-5.50;99.90
22666;DHT22;11499;49.486;11.104;2022-12-18T06:56:19;-5.40;99.90
22666;DHT22;11499;49.486;11.104;2022-12-18T06:58:45;-5.30;99.90
22666;DHT22;11499;49.486;11.104;2022-12-18T07:01:11;-5.10;99.90
22666;DHT22;11499;49.486;11.104;2022-12-18T07:03:38;-5.30;99.90
22666;DHT22;11499;49.486;11.104;2022-12-18T07:06:04;-5.40;99.90
22666;DHT22;11499;49.486;11.104;2022-12-18T07:08:31;-5.30;99.90
22666;DHT22;11499;49.486;11.104;2022-12-18T07:10:56;-5.30;99.90
22666;DHT22;11499;49.486;11.104;2022-12-18T07:13:22;-5.20;99.90
22666;DHT22;11499;49.486;11.104;2022-12-18T07:18:43;-5.00;99.90
22666;DHT22;11499;49.486;11.104;2022-12-18T07:21:11;-5.00;99.90
22666;DHT22;11499;49.486;11.104;2022-12-18T07:23:37;-5.00;99.90
22666;DHT22;11499;49.486;11.104;2022-12-18T07:26:05;-5.00;99.90
22666;DHT22;11499;49.486;11.104;2022-12-18T07:28:32;-4.90;99.90
22666;DHT22;11499;49.486;11.104;2022-12-18T07:31:02;-4.90;99.90
22666;DHT22;11499;49.486;11.104;2022-12-18T07:33:27;-4.80;99.90
22666;DHT22;11499;49.486;11.104;2022-12-18T07:35:53;-4.80;99.90
22666;DHT22;11499;49.486;11.104;2022-12-18T07:38:18;-4.80;99.90
22666;DHT22;11499;49.486;11.104;2022-12-18T07:40:44;-4.80;99.90
22666;DHT22;11499;49.486;11.104;2022-12-18T07:45:55;-4.80;99.90
22666;DHT22;11499;49.486;11.104;2022-12-18T07:48:21;-4.50;99.90
22666;DHT22;11499;49.486;11.104;2022-12-18T07:50:46;-4.40;99.90
22666;DHT22;11499;49.486;11.104;2022-12-18T07:53:12;-4.30;99.90
22666;DHT22;11499;49.486;11.104;2022-12-18T07:55:37;-4.20;99.90
22666;DHT22;11499;49.486;11.104;2022-12-18T07:58:04;-4.10;99.90
22666;DHT22;11499;49.486;11.104;2022-12-18T08:00:30;-3.80;99.90
22666;DHT22;11499;49.486;11.104;2022-12-18T08:02:56;-3.80;99.90
22666;DHT22;11499;49.486;11.104;2022-12-18T08:05:22;-3.70;99.90
22666;DHT22;11499;49.486;11.104;2022-12-18T08:07:47;-3.70;99.90
22666;DHT22;11499;49.486;11.104;2022-12-18T08:12:52;-3.60;99.90
22666;DHT22;11499;49.486;11.104;2022-12-18T08:15:17;-3.80;99.90
22666;DHT22;11499;49.486;11.104;2022-12-18T08:17:43;-3.60;99.90
22666;DHT22;11499;49.486;11.104;2022-12-18T08:20:09;-3.40;99.90
22666;DHT22;11499;49.486;11.104;2022-12-18T08:22:35;-3.30;99.90
22666;DHT22;11499;49.486;11.104;2022-12-18T08:25:01;-3.10;99.90
22666;DHT22;11499;49.486;11.104;2022-12-18T08:27:27;-3.00;99.90
22666;DHT22;11499;49.486;11.104;2022-12-18T08:29:52;-3.10;99.90
22666;DHT22;11499;49.486;11.104;2022-12-18T08:32:18;-3.10;99.90
22666;DHT22;11499;49.486;11.104;2022-12-18T08:34:43;-2.90;99.90
22666;DHT22;11499;49.486;11.104;2022-12-18T08:39:53;-2.70;99.90
22666;DHT22;11499;49.486;11.104;2022-12-18T08:42:18;-2.50;99.90
22666;DHT22;11499;49.486;11.104;2022-12-18T08:45:03;-2.40;99.80
22666;DHT22;11499;49.486;11.104;2022-12-18T08:47:29;-2.40;99.70
22666;DHT22;11499;49.486;11.104;2022-12-18T08:49:54;-2.10;99.70
22666;DHT22;11499;49.486;11.104;2022-12-18T08:52:20;-2.50;99.40
22666;DHT22;11499;49.486;11.104;2022-12-18T08:54:45;-2.50;99.60
22666;DHT22;11499;49.486;11.104;2022-12-18T08:57:11;-2.40;99.70
22666;DHT22;11499;49.486;11.104;2022-12-18T08:59:36;-2.20;99.60
22666;DHT22;11499;49.486;11.104;2022-12-18T09:02:02;-2.30;99.30
22666;DHT22;11499;49.486;11.104;2022-12-18T09:07:04;-2.20;99.50
22666;DHT22;11499;49.486;11.104;2022-12-18T09:09:29;-1.90;99.30
22666;DHT22;11499;49.486;11.104;2022-12-18T09:11:55;-1.80;99.00
22666;DHT22;11499;49.486;11.104;2022-12-18T09:14:20;-1.70;98.80
22666;DHT22;11499;49.486;11.104;2022-12-18T09:16:46;-1.60;98.70
22666;DHT22;11499;49.486;11.104;2022-12-18T09:19:11;-1.50;98.40
22666;DHT22;11499;49.486;11.104;2022-12-18T09:21:37;-1.50;98.20
22666;DHT22;11499;49.486;11.104;2022-12-18T09:24:04;-1.40;98.10
22666;DHT22;11499;49.486;11.104;2022-12-18T09:26:30;-1.40;98.10
22666;DHT22;11499;49.486;11.104;2022-12-18T09:28:55;-1.40;97.70
22666;DHT22;11499;49.486;11.104;2022-12-18T09:33:59;-1.20;97.60
22666;DHT22;11499;49.486;11.104;2022-12-18T09:36:25;-1.20;97.30
22666;DHT22;11499;49.486;11.104;2022-12-18T09:38:50;-1.20;97.40
22666;DHT22;11499;49.486;11.104;2022-12-18T09:41:46;-1.40;97.40
22666;DHT22;11499;49.486;11.104;2022-12-18T09:44:34;-1.30;97.50
22666;DHT22;11499;49.486;11.104;2022-12-18T09:49:47;-1.20;97.00
22666;DHT22;11499;49.486;11.104;2022-12-18T09:54:56;-1.20;96.50
22666;DHT22;11499;49.486;11.104;2022-12-18T10:00:11;-1.00;96.30
22666;DHT22;11499;49.486;11.104;2022-12-18T10:02:40;-1.30;96.00
22666;DHT22;11499;49.486;11.104;2022-12-18T10:05:07;-1.30;96.50
22666;DHT22;11499;49.486;11.104;2022-12-18T10:07:45;-1.10;96.20
22666;DHT22;11499;49.486;11.104;2022-12-18T10:10:40;-1.60;96.10
22666;DHT22;11499;49.486;11.104;2022-12-18T10:13:31;-1.60;96.50
22666;DHT22;11499;49.486;11.104;2022-12-18T10:16:17;-1.70;96.80
22666;DHT22;11499;49.486;11.104;2022-12-18T10:19:01;-1.70;96.70
22666;DHT22;11499;49.486;11.104;2022-12-18T10:27:15;-1.60;96.80
22666;DHT22;11499;49.486;11.104;2022-12-18T10:29:43;-1.50;96.50
22666;DHT22;11499;49.486;11.104;2022-12-18T10:32:15;-1.50;96.60
22666;DHT22;11499;49.486;11.104;2022-12-18T10:34:45;-1.30;96.30
22666;DHT22;11499;49.486;11.104;2022-12-18T10:37:16;-1.10;96.10
22666;DHT22;11499;49.486;11.104;2022-12-18T10:39:43;-1.00;95.70
22666;DHT22;11499;49.486;11.104;2022-12-18T10:42:19;-1.10;95.40
22666;DHT22;11499;49.486;11.104;2022-12-18T10:44:44;-1.20;95.80
22666;DHT22;11499;49.486;11.104;2022-12-18T10:47:18;-1.00;95.40
22666;DHT22;11499;49.486;11.104;2022-12-18T10:53:37;-0.90;96.00
22666;DHT22;11499;49.486;11.104;2022-12-18T10:56:04;-0.70;95.00
22666;DHT22;11499;49.486;11.104;2022-12-18T10:58:32;-0.60;95.40
22666;DHT22;11499;49.486;11.104;2022-12-18T11:01:16;-0.50;94.90
22666;DHT22;11499;49.486;11.104;2022-12-18T11:03:46;-0.50;94.30
22666;DHT22;11499;49.486;11.104;2022-12-18T11:06:17;-0.60;94.10
22666;DHT22;11499;49.486;11.104;2022-12-18T11:11:32;-0.50;93.90
22666;DHT22;11499;49.486;11.104;2022-12-18T11:14:04;-0.50;94.10
22666;DHT22;11499;49.486;11.104;2022-12-18T11:19:31;-0.40;93.90
22666;DHT22;11499;49.486;11.104;2022-12-18T11:21:58;-0.60;94.10
22666;DHT22;11499;49.486;11.104;2022-12-18T11:24:32;-0.60;93.90
22666;DHT22;11499;49.486;11.104;2022-12-18T11:27:01;-0.60;94.00
22666;DHT22;11499;49.486;11.104;2022-12-18T11:29:39;-0.60;94.10
22666;DHT22;11499;49.486;11.104;2022-12-18T11:33:00;-0.50;94.10
22666;DHT22;11499;49.486;11.104;2022-12-18T11:38:11;-0.40;93.60
22666;DHT22;11499;49.486;11.104;2022-12-18T11:40:40;-0.40;93.70
22666;DHT22;11499;49.486;11.104;2022-12-18T11:46:57;-0.30;93.90
22666;DHT22;11499;49.486;11.104;2022-12-18T11:49:28;-0.20;93.50
22666;DHT22;11499;49.486;11.104;2022-12-18T11:52:18;-0.40;93.50
22666;DHT22;11499;49.486;11.104;2022-12-18T11:54:44;-0.40;93.40
22666;DHT22;11499;49.486;11.104;2022-12-18T11:57:33;-0.40;93.60
22666;DHT22;11499;49.486;11.104;2022-12-18T12:12:56;-0.60;93.80
22666;DHT22;11499;49.486;11.104;2022-12-18T12:20:51;-0.60;94.00
22666;DHT22;11499;49.486;11.104;2022-12-18T12:40:03;0.10;93.70
22666;DHT22;11499;49.486;11.104;2022-12-18T12:42:37;0.30;93.10
22666;DHT22;11499;49.486;11.104;2022-12-18T12:45:44;0.40;92.90
22666;DHT22;11499;49.486;11.104;2022-12-18T12:48:32;0.30;92.70
22666;DHT22;11499;49.486;11.104;2022-12-18T12:51:03;0.30;92.50
22666;DHT22;11499;49.486;11.104;2022-12-18T12:53:34;0.30;92.60
22666;DHT22;11499;49.486;11.104;2022-12-18T12:56:01;0.30;92.80
22666;DHT22;11499;49.486;11.104;2022-12-18T12:58:39;0.30;92.90
22666;DHT22;11499;49.486;11.104;2022-12-18T13:01:28;0.30;92.80
22666;DHT22;11499;49.486;11.104;2022-12-18T13:05:26;0.30;93.00
22666;DHT22;11499;49.486;11.104;2022-12-18T13:08:11;0.20;92.70
22666;DHT22;11499;49.486;11.104;2022-12-18T13:10:46;0.20;92.60
22666;DHT22;11499;49.486;11.104;2022-12-18T13:13:15;0.30;92.80
22666;DHT22;11499;49.486;11.104;2022-12-18T13:15:45;0.10;92.80
22666;DHT22;11499;49.486;11.104;2022-12-18T13:18:18;0.10;92.80
22666;DHT22;11499;49.486;11.104;2022-12-18T13:25:53;0.00;92.80
22666;DHT22;11499;49.486;11.104;2022-12-18T13:33:37;0.00;93.00
22666;DHT22;11499;49.486;11.104;2022-12-18T13:38:47;-0.10;93.40
22666;DHT22;11499;49.486;11.104;2022-12-18T13:41:33;-0.10;93.20
22666;DHT22;11499;49.486;11.104;2022-12-18T13:44:25;-0.20;93.20
22666;DHT22;11499;49.486;11.104;2022-12-18T13:46:52;-0.20;93.30
22666;DHT22;11499;49.486;11.104;2022-12-18T13:49:24;-0.30;93.20
22666;DHT22;11499;49.486;11.104;2022-12-18T13:51:52;-0.30;93.40
22666;DHT22;11499;49.486;11.104;2022-12-18T13:59:56;-0.40;93.50
22666;DHT22;11499;49.486;11.104;2022-12-18T14:02:24;-0.50;93.60
22666;DHT22;11499;49.486;11.104;2022-12-18T14:04:50;-0.60;93.70
22666;DHT22;11499;49.486;11.104;2022-12-18T14:07:24;-0.70;93.90
22666;DHT22;11499;49.486;11.104;2022-12-18T14:09:52;-0.70;93.70
22666;DHT22;11499;49.486;11.104;2022-12-18T14:12:25;-0.80;93.90
22666;DHT22;11499;49.486;11.104;2022-12-18T14:15:22;-0.80;93.90
22666;DHT22;11499;49.486;11.104;2022-12-18T14:17:50;-0.80;93.90
22666;DHT22;11499;49.486;11.104;2022-12-18T14:20:17;-0.90;93.90
22666;DHT22;11499;49.486;11.104;2022-12-18T14:22:45;-1.00;94.10
22666;DHT22;11499;49.486;11.104;2022-12-18T14:27:51;-1.00;94.30
22666;DHT22;11499;49.486;11.104;2022-12-18T14:35:35;-1.20;94.60
22666;DHT22;11499;49.486;11.104;2022-12-18T14:38:18;-1.20;95.00
22666;DHT22;11499;49.486;11.104;2022-12-18T14:40:44;-1.30;94.70
22666;DHT22;11499;49.486;11.104;2022-12-18T14:43:13;-1.30;95.00
22666;DHT22;11499;49.486;11.104;2022-12-18T14:45:48;-1.40;95.00
22666;DHT22;11499;49.486;11.104;2022-12-18T14:52:55;-1.50;95.10
22666;DHT22;11499;49.486;11.104;2022-12-18T14:55:21;-1.60;95.40
22666;DHT22;11499;49.486;11.104;2022-12-18T14:57:51;-1.70;95.60
22666;DHT22;11499;49.486;11.104;2022-12-18T15:00:20;-1.80;95.60
22666;DHT22;11499;49.486;11.104;2022-12-18T15:02:50;-1.90;95.60
22666;DHT22;11499;49.486;11.104;2022-12-18T15:05:20;-1.90;95.90
22666;DHT22;11499;49.486;11.104;2022-12-18T15:07:51;-2.00;96.10
22666;DHT22;11499;49.486;11.104;2022-12-18T15:10:20;-2.00;96.10
22666;DHT22;11499;49.486;11.104;2022-12-18T15:18:15;-2.10;96.30
22666;DHT22;11499;49.486;11.104;2022-12-18T15:25:49;-2.30;96.70
22666;DHT22;11499;49.486;11.104;2022-12-18T15:28:24;-2.20;96.70
22666;DHT22;11499;49.486;11.104;2022-12-18T15:31:02;-2.40;96.80
22666;DHT22;11499;49.486;11.104;2022-12-18T15:33:36;-2.40;97.20
22666;DHT22;11499;49.486;11.104;2022-12-18T15:36:07;-2.50;97.00
22666;DHT22;11499;49.486;11.104;2022-12-18T15:38:33;-2.60;97.20
22666;DHT22;11499;49.486;11.104;2022-12-18T15:40:59;-2.60;97.20
22666;DHT22;11499;49.486;11.104;2022-12-18T15:46:17;-2.40;97.40
22666;DHT22;11499;49.486;11.104;2022-12-18T15:48:44;-2.70;97.40
22666;DHT22;11499;49.486;11.104;2022-12-18T15:51:34;-2.60;97.60
22666;DHT22;11499;49.486;11.104;2022-12-18T15:54:02;-2.60;97.60
22666;DHT22;11499;49.486;11.104;2022-12-18T15:56:29;-2.70;97.60
22666;DHT22;11499;49.486;11.104;2022-12-18T15:59:18;-2.60;97.60
22666;DHT22;11499;49.486;11.104;2022-12-18T16:01:46;-2.60;97.60
22666;DHT22;11499;49.486;11.104;2022-12-18T16:04:13;-2.60;97.60
22666;DHT22;11499;49.486;11.104;2022-12-18T16:06:39;-2.60;97.70
22666;DHT22;11499;49.486;11.104;2022-12-18T16:09:05;-2.60;97.60
22666;DHT22;11499;49.486;11.104;2022-12-18T16:13:44;-2.60;97.60
22666;DHT22;11499;49.486;11.104;2022-12-18T16:16:09;-2.70;97.70
22666;DHT22;11499;49.486;11.104;2022-12-18T16:18:35;-2.70;97.80
22666;DHT22;11499;49.486;11.104;2022-12-18T16:21:00;-2.70;97.60
22666;DHT22;11499;49.486;11.104;2022-12-18T16:23:26;-2.80;97.50
22666;DHT22;11499;49.486;11.104;2022-12-18T16:25:52;-2.80;97.70
22666;DHT22;11499;49.486;11.104;2022-12-18T16:28:17;-2.70;97.70
22666;DHT22;11499;49.486;11.104;2022-12-18T16:30:43;-2.80;97.60
22666;DHT22;11499;49.486;11.104;2022-12-18T16:33:10;-2.80;97.70
22666;DHT22;11499;49.486;11.104;2022-12-18T16:35:36;-2.80;97.80
22666;DHT22;11499;49.486;11.104;2022-12-18T16:40:40;-2.80;97.70
22666;DHT22;11499;49.486;11.104;2022-12-18T16:43:25;-2.80;97.50
22666;DHT22;11499;49.486;11.104;2022-12-18T16:45:51;-2.90;97.60
22666;DHT22;11499;49.486;11.104;2022-12-18T16:48:17;-2.80;97.60
22666;DHT22;11499;49.486;11.104;2022-12-18T16:50:42;-2.90;97.60
22666;DHT22;11499;49.486;11.104;2022-12-18T16:53:08;-2.90;97.70
22666;DHT22;11499;49.486;11.104;2022-12-18T16:55:33;-2.90;97.60
22666;DHT22;11499;49.486;11.104;2022-12-18T16:57:59;-3.00;97.80
22666;DHT22;11499;49.486;11.104;2022-12-18T17:00:24;-3.00;97.80
22666;DHT22;11499;49.486;11.104;2022-12-18T17:02:50;-3.00;97.80
22666;DHT22;11499;49.486;11.104;2022-12-18T17:05:15;-3.00;97.90
22666;DHT22;11499;49.486;11.104;2022-12-18T17:07:41;-3.00;97.80
22666;DHT22;11499;49.486;11.104;2022-12-18T17:10:52;-3.00;97.80
22666;DHT22;11499;49.486;11.104;2022-12-18T17:13:17;-2.90;97.60
22666;DHT22;11499;49.486;11.104;2022-12-18T17:15:43;-2.90;97.50
22666;DHT22;11499;49.486;11.104;2022-12-18T17:18:08;-2.90;97.60
22666;DHT22;11499;49.486;11.104;2022-12-18T17:20:34;-2.90;97.50
22666;DHT22;11499;49.486;11.104;2022-12-18T17:22:59;-2.90;97.60
22666;DHT22;11499;49.486;11.104;2022-12-18T17:25:25;-2.90;97.60
22666;DHT22;11499;49.486;11.104;2022-12-18T17:27:50;-2.90;97.40
22666;DHT22;11499;49.486;11.104;2022-12-18T17:30:16;-2.90;97.40
22666;DHT22;11499;49.486;11.104;2022-12-18T17:32:41;-2.90;97.60
22666;DHT22;11499;49.486;11.104;2022-12-18T17:37:05;-2.90;97.60
22666;DHT22;11499;49.486;11.104;2022-12-18T17:39:31;-2.80;97.60
22666;DHT22;11499;49.486;11.104;2022-12-18T17:41:57;-3.00;97.60
22666;DHT22;11499;49.486;11.104;2022-12-18T17:44:23;-3.10;97.50
22666;DHT22;11499;49.486;11.104;2022-12-18T17:46:49;-3.10;97.60
22666;DHT22;11499;49.486;11.104;2022-12-18T17:49:14;-3.10;97.70
22666;DHT22;11499;49.486;11.104;2022-12-18T17:51:40;-3.20;97.80
22666;DHT22;11499;49.486;11.104;2022-12-18T17:54:07;-3.20;97.70
22666;DHT22;11499;49.486;11.104;2022-12-18T17:56:32;-3.30;97.80
22666;DHT22;11499;49.486;11.104;2022-12-18T17:58:58;-3.10;97.90
22666;DHT22;11499;49.486;11.104;2022-12-18T18:04:01;-3.20;97.90
22666;DHT22;11499;49.486;11.104;2022-12-18T18:06:27;-3.00;97.90
22666;DHT22;11499;49.486;11.104;2022-12-18T18:08:53;-3.30;97.90
22666;DHT22;11499;49.486;11.104;2022-12-18T18:11:20;-3.30;97.90
22666;DHT22;11499;49.486;11.104;2022-12-18T18:14:11;-3.20;98.00
22666;DHT22;11499;49.486;11.104;2022-12-18T18:16:43;-3.20;98.00
22666;DHT22;11499;49.486;11.104;2022-12-18T18:19:11;-3.20;97.90
22666;DHT22;11499;49.486;11.104;2022-12-18T18:21:39;-3.20;97.80
22666;DHT22;11499;49.486;11.104;2022-12-18T18:24:06;-3.20;97.90
22666;DHT22;11499;49.486;11.104;2022-12-18T18:26:32;-3.20;97.80
22666;DHT22;11499;49.486;11.104;2022-12-18T18:31:16;-3.20;97.70
22666;DHT22;11499;49.486;11.104;2022-12-18T18:33:41;-3.10;97.70
22666;DHT22;11499;49.486;11.104;2022-12-18T18:36:09;-3.20;97.80
22666;DHT22;11499;49.486;11.104;2022-12-18T18:38:35;-3.10;97.70
22666;DHT22;11499;49.486;11.104;2022-12-18T18:41:02;-3.10;97.80